Time;durP1;ratioP1;P1;durP2;ratioP2;P2;SDS_P1;SDS_P2;PMS_P1;PMS_P2;Temp;Humidity;BMP_temperature;BMP_pressure;BME280_temperature;BME280_humidity;BME280_pressure;Samples;Min_cycle;Max_cycle;Signal;HPM_P1;HPM_P2
2022/09/09 00:02:23;;;;;;;0.50;0.50;;;22.00;60.30;;;;;;6218938;28;20057;-72
2022/09/09 00:05:51;;;;;;;0.40;0.40;;;22.00;60.30;;;;;;6222576;28;20030;-72
2022/09/09 00:09:11;;;;;;;0.55;0.52;;;22.00;60.30;;;;;;6217809;28;20079;-72
2022/09/09 00:12:36;;;;;;;0.60;0.60;;;22.00;60.30;;;;;;6218106;28;20057;-72
2022/09/09 00:15:44;;;;;;;0.57;0.40;;;22.00;60.30;;;;;;6193272;28;20038;-72
2022/09/09 00:19:00;;;;;;;0.40;0.40;;;22.00;60.30;;;;;;6202165;28;20036;-72
2022/09/09 00:22:17;;;;;;;0.50;0.50;;;22.00;60.30;;;;;;6220666;28;20374;-72
2022/09/09 00:25:41;;;;;;;0.55;0.47;;;22.00;60.30;;;;;;6217438;28;20480;-72
2022/09/09 00:29:07;;;;;;;0.40;0.32;;;22.00;60.30;;;;;;6217471;28;20033;-72
2022/09/09 00:32:18;;;;;;;0.63;0.55;;;22.00;60.30;;;;;;6217276;28;20065;-72
2022/09/09 00:35:22;;;;;;;0.40;0.40;;;22.00;60.20;;;;;;6217898;28;20048;-72
2022/09/09 00:38:41;;;;;;;0.60;0.50;;;22.00;60.20;;;;;;6218938;28;20018;-72
2022/09/09 00:41:57;;;;;;;0.50;0.50;;;22.00;60.20;;;;;;6217941;28;20032;-72
2022/09/09 00:45:09;;;;;;;0.40;0.40;;;22.00;60.20;;;;;;6216727;28;20400;-72
2022/09/09 00:48:11;;;;;;;0.63;0.50;;;22.00;60.20;;;;;;6223947;28;20030;-72
2022/09/09 00:51:23;;;;;;;0.45;0.45;;;22.00;60.30;;;;;;6192616;28;20022;-72
2022/09/09 00:54:37;;;;;;;0.40;0.40;;;22.00;60.30;;;;;;6201628;28;20080;-73
2022/09/09 00:57:38;;;;;;;0.30;0.30;;;22.00;60.30;;;;;;6216481;28;20026;-72
2022/09/09 01:00:42;;;;;;;0.40;0.40;;;22.00;60.30;;;;;;6216917;28;20147;-72
2022/09/09 01:03:49;;;;;;;0.43;0.43;;;22.00;60.40;;;;;;6215770;28;20111;-72
2022/09/09 01:06:56;;;;;;;0.50;0.40;;;22.00;60.40;;;;;;6216829;28;20087;-72
2022/09/09 01:09:59;;;;;;;0.60;0.50;;;22.00;60.30;;;;;;6216684;28;20057;-72
2022/09/09 01:13:05;;;;;;;0.40;0.40;;;22.00;60.30;;;;;;6216458;28;20109;-72
2022/09/09 01:16:11;;;;;;;0.52;0.30;;;22.00;60.40;;;;;;6215969;28;20117;-72
2022/09/09 01:19:24;;;;;;;1.17;0.40;;;22.00;60.30;;;;;;6218419;28;20025;-72
2022/09/09 01:22:31;;;;;;;0.43;0.30;;;22.00;60.30;;;;;;6217882;28;20421;-74
2022/09/09 01:25:44;;;;;;;0.50;0.47;;;22.00;60.30;;;;;;6216973;28;20423;-72
2022/09/09 01:28:48;;;;;;;0.38;0.30;;;22.00;60.30;;;;;;6216480;28;20026;-72
2022/09/09 01:32:22;;;;;;;0.30;0.30;;;22.00;60.30;;;;;;6214346;28;20504;-72
2022/09/09 01:35:36;;;;;;;0.30;0.30;;;22.00;60.30;;;;;;6215964;28;20067;-72
2022/09/09 01:38:37;;;;;;;0.30;0.30;;;22.00;60.30;;;;;;6216380;28;20033;-72
2022/09/09 01:41:38;;;;;;;0.50;0.50;;;22.00;60.20;;;;;;6215821;28;20026;-72
2022/09/09 01:44:38;;;;;;;0.50;0.45;;;22.00;60.30;;;;;;6216064;28;20366;-72
2022/09/09 01:47:40;;;;;;;0.52;0.50;;;22.00;60.40;;;;;;6215838;28;20050;-72
2022/09/09 01:50:40;;;;;;;0.60;0.50;;;22.00;60.30;;;;;;6216239;28;20061;-73
2022/09/09 01:53:42;;;;;;;0.50;0.40;;;22.00;60.40;;;;;;6215641;28;20476;-72
2022/09/09 01:56:48;;;;;;;0.60;0.47;;;22.00;60.30;;;;;;6215854;28;20049;-72
2022/09/09 01:59:54;;;;;;;0.47;0.40;;;22.00;60.30;;;;;;6217089;28;20018;-72
2022/09/09 02:03:13;;;;;;;0.88;0.50;;;22.00;60.30;;;;;;6216032;28;20037;-72
2022/09/09 02:06:38;;;;;;;0.40;0.40;;;22.00;60.30;;;;;;6217123;28;20026;-72
2022/09/09 02:09:44;;;;;;;0.60;0.50;;;22.00;60.40;;;;;;6215886;28;20018;-72
2022/09/09 02:12:50;;;;;;;0.50;0.50;;;22.00;60.40;;;;;;6215213;28;20114;-72
2022/09/09 02:16:09;;;;;;;0.40;0.30;;;22.00;60.30;;;;;;6219107;28;20045;-72
2022/09/09 02:19:16;;;;;;;0.52;0.50;;;22.00;60.30;;;;;;6317348;27;20056;-72
2022/09/09 02:22:21;;;;;;;0.80;0.60;;;22.00;60.30;;;;;;6215369;28;20071;-72
2022/09/09 02:25:25;;;;;;;0.60;0.50;;;22.00;60.30;;;;;;6215282;28;20025;-72
2022/09/09 02:28:30;;;;;;;0.60;0.40;;;22.00;60.20;;;;;;6215394;28;20079;-72
2022/09/09 02:31:35;;;;;;;0.40;0.40;;;22.00;60.30;;;;;;6216277;28;20791;-72
2022/09/09 02:34:41;;;;;;;0.38;0.38;;;22.00;60.40;;;;;;6216878;28;20046;-72
2022/09/09 02:37:46;;;;;;;0.47;0.43;;;22.00;60.30;;;;;;6215491;28;20479;-72
2022/09/09 02:40:47;;;;;;;0.30;0.30;;;22.00;60.40;;;;;;6215109;28;20109;-72
2022/09/09 02:43:47;;;;;;;0.30;0.30;;;22.00;60.40;;;;;;6214090;28;20057;-72
2022/09/09 02:47:24;;;;;;;0.40;0.40;;;22.00;60.40;;;;;;6215312;28;20021;-72
2022/09/09 02:50:43;;;;;;;0.40;0.40;;;22.00;60.40;;;;;;6214629;28;20034;-72
2022/09/09 02:54:07;;;;;;;1.15;0.40;;;22.00;60.30;;;;;;6212892;28;20073;-74
2022/09/09 02:57:10;;;;;;;0.63;0.47;;;22.00;60.30;;;;;;6214152;28;20030;-72
2022/09/09 03:00:12;;;;;;;0.40;0.38;;;22.00;60.30;;;;;;6214876;28;20022;-72
2022/09/09 03:03:13;;;;;;;1.25;0.50;;;22.00;60.30;;;;;;6214439;28;20086;-72
2022/09/09 03:06:14;;;;;;;0.30;0.30;;;22.00;60.20;;;;;;6214339;28;20043;-72
2022/09/09 03:09:14;;;;;;;0.32;0.32;;;22.00;60.20;;;;;;6214366;28;20030;-72
2022/09/09 03:12:16;;;;;;;0.38;0.38;;;22.00;60.30;;;;;;6214462;28;20438;-72
2022/09/09 03:15:17;;;;;;;0.40;0.38;;;22.00;60.20;;;;;;6214456;28;20034;-72
2022/09/09 03:18:17;;;;;;;0.57;0.40;;;22.00;60.30;;;;;;6214532;28;20430;-72
2022/09/09 03:21:18;;;;;;;0.85;0.40;;;22.00;60.30;;;;;;6214159;28;20472;-72
2022/09/09 03:24:19;;;;;;;0.30;0.30;;;22.00;60.30;;;;;;6214132;28;20054;-72
2022/09/09 03:27:19;;;;;;;0.45;0.45;;;22.00;60.40;;;;;;6217108;28;20025;-72
2022/09/09 03:30:25;;;;;;;0.20;0.20;;;22.00;60.30;;;;;;6219166;28;20052;-72
2022/09/09 03:33:26;;;;;;;0.32;0.32;;;22.00;60.30;;;;;;6218222;28;20477;-72
2022/09/09 03:36:26;;;;;;;0.50;0.50;;;22.00;60.30;;;;;;6217550;28;20350;-72
2022/09/09 03:39:27;;;;;;;0.52;0.40;;;22.00;60.20;;;;;;6218582;28;20441;-73
2022/09/09 03:42:28;;;;;;;0.40;0.32;;;22.00;60.30;;;;;;6218027;28;20454;-72
2022/09/09 03:45:29;;;;;;;0.43;0.35;;;22.00;60.30;;;;;;6217741;28;20055;-72
2022/09/09 03:48:29;;;;;;;0.30;0.30;;;22.00;60.30;;;;;;6218220;28;20025;-72
2022/09/09 03:51:30;;;;;;;0.40;0.40;;;22.00;60.20;;;;;;6218253;28;20054;-72
2022/09/09 03:54:31;;;;;;;0.68;0.50;;;22.00;60.20;;;;;;6222400;28;20083;-73
2022/09/09 03:57:34;;;;;;;0.40;0.40;;;22.00;60.30;;;;;;6218149;28;20499;-72
2022/09/09 04:00:35;;;;;;;0.55;0.40;;;22.00;60.30;;;;;;6218120;28;20026;-72
2022/09/09 04:03:35;;;;;;;0.30;0.30;;;22.00;60.30;;;;;;6219566;28;20049;-72
2022/09/09 04:06:36;;;;;;;0.30;0.30;;;22.00;60.30;;;;;;6219495;28;20029;-72
2022/09/09 04:09:37;;;;;;;0.47;0.40;;;22.00;60.20;;;;;;6219239;28;20477;-73
2022/09/09 04:12:37;;;;;;;0.60;0.38;;;22.00;60.30;;;;;;6219180;28;20018;-72
2022/09/09 04:15:38;;;;;;;0.43;0.40;;;22.00;60.20;;;;;;6219195;28;20058;-72
2022/09/09 04:18:38;;;;;;;0.50;0.30;;;22.00;60.30;;;;;;6218874;28;20018;-73
2022/09/09 04:21:40;;;;;;;0.40;0.30;;;22.00;60.20;;;;;;6219350;28;20104;-72
2022/09/09 04:24:40;;;;;;;0.50;0.32;;;22.00;60.30;;;;;;6218614;28;20026;-72
2022/09/09 04:27:42;;;;;;;0.70;0.40;;;22.00;60.30;;;;;;6218479;28;20099;-72
2022/09/09 04:30:44;;;;;;;0.45;0.40;;;22.00;60.20;;;;;;6217835;28;20025;-72
2022/09/09 04:33:46;;;;;;;0.30;0.20;;;22.00;60.30;;;;;;6217120;28;20030;-72
2022/09/09 04:36:46;;;;;;;0.40;0.32;;;22.00;60.20;;;;;;6218410;28;20430;-74
2022/09/09 04:39:47;;;;;;;0.40;0.40;;;22.00;60.10;;;;;;6216660;28;20026;-73
2022/09/09 04:42:48;;;;;;;0.30;0.30;;;22.00;60.20;;;;;;6217811;28;20053;-72
2022/09/09 04:45:51;;;;;;;0.30;0.30;;;22.00;60.20;;;;;;6218014;28;20029;-72
2022/09/09 04:48:52;;;;;;;0.40;0.40;;;22.00;60.20;;;;;;6216242;28;20041;-73
2022/09/09 04:51:53;;;;;;;0.43;0.38;;;22.00;60.20;;;;;;6217580;28;20636;-72
2022/09/09 04:54:53;;;;;;;0.25;0.25;;;22.00;60.20;;;;;;6217272;28;20080;-72
2022/09/09 04:57:54;;;;;;;0.32;0.30;;;22.00;60.20;;;;;;6217314;28;20022;-72
2022/09/09 05:00:55;;;;;;;0.32;0.32;;;22.00;60.30;;;;;;6216207;28;20484;-72
2022/09/09 05:03:56;;;;;;;0.50;0.40;;;22.00;60.20;;;;;;6204826;28;20069;-72
2022/09/09 05:06:56;;;;;;;0.30;0.30;;;22.00;60.10;;;;;;6216845;28;20030;-72
2022/09/09 05:09:57;;;;;;;1.05;0.50;;;22.00;60.20;;;;;;6216743;28;20091;-72
2022/09/09 05:12:58;;;;;;;0.50;0.43;;;22.00;60.30;;;;;;6216463;28;20024;-72
2022/09/09 05:15:59;;;;;;;0.68;0.43;;;22.00;60.30;;;;;;6216139;28;20029;-73
2022/09/09 05:18:59;;;;;;;0.50;0.40;;;22.00;60.30;;;;;;6217212;28;20030;-73
2022/09/09 05:22:00;;;;;;;1.08;0.60;;;22.00;60.20;;;;;;6216704;28;20030;-72
2022/09/09 05:25:01;;;;;;;0.80;0.40;;;22.00;60.20;;;;;;6217190;28;20109;-72
2022/09/09 05:28:02;;;;;;;0.68;0.43;;;22.00;60.30;;;;;;6217626;28;20018;-72
2022/09/09 05:31:05;;;;;;;0.52;0.40;;;22.00;60.30;;;;;;6216641;28;20298;-72
2022/09/09 05:34:05;;;;;;;0.30;0.30;;;22.00;60.30;;;;;;6215868;28;20159;-72
2022/09/09 05:37:07;;;;;;;0.50;0.40;;;22.00;60.40;;;;;;6216411;28;20053;-72
2022/09/09 05:40:09;;;;;;;0.50;0.40;;;22.00;60.30;;;;;;6215997;28;20022;-72
2022/09/09 05:43:09;;;;;;;0.50;0.40;;;22.00;60.20;;;;;;6214788;28;20535;-72
2022/09/09 05:46:12;;;;;;;0.82;0.50;;;22.00;60.10;;;;;;6216016;28;20026;-72
2022/09/09 05:49:15;;;;;;;0.38;0.38;;;22.00;60.20;;;;;;6216072;28;20342;-72
2022/09/09 05:52:15;;;;;;;0.50;0.40;;;22.00;60.90;;;;;;6216231;28;20029;-72
2022/09/09 05:55:17;;;;;;;0.30;0.30;;;22.00;60.50;;;;;;6216165;28;20079;-72
2022/09/09 05:58:18;;;;;;;0.40;0.40;;;22.00;60.60;;;;;;6215586;28;20026;-72
2022/09/09 06:01:33;;;;;;;0.30;0.30;;;22.00;60.40;;;;;;6210011;28;20034;-72
2022/09/09 06:04:34;;;;;;;0.40;0.35;;;22.00;60.40;;;;;;6206254;28;20014;-72
2022/09/09 06:07:35;;;;;;;0.30;0.30;;;22.00;60.40;;;;;;6219620;28;20050;-72
2022/09/09 06:10:36;;;;;;;0.30;0.30;;;22.00;60.60;;;;;;6219118;28;20108;-72
2022/09/09 06:13:38;;;;;;;0.55;0.40;;;22.00;60.60;;;;;;6218934;28;20431;-72
2022/09/09 06:16:39;;;;;;;0.77;0.47;;;21.90;60.60;;;;;;6219224;28;20018;-72
2022/09/09 06:19:40;;;;;;;0.57;0.30;;;22.00;60.70;;;;;;6219214;28;20029;-72
2022/09/09 06:22:41;;;;;;;0.70;0.47;;;22.00;60.60;;;;;;6219424;28;20022;-72
2022/09/09 06:25:41;;;;;;;0.40;0.40;;;22.00;60.50;;;;;;6219180;28;20030;-72
2022/09/09 06:28:42;;;;;;;0.55;0.40;;;22.00;60.60;;;;;;6218919;28;20441;-72
2022/09/09 06:31:45;;;;;;;0.40;0.40;;;22.00;60.60;;;;;;6218671;28;20022;-72
2022/09/09 06:34:46;;;;;;;0.75;0.55;;;22.00;60.70;;;;;;6222698;28;20395;-72
2022/09/09 06:37:48;;;;;;;0.60;0.40;;;21.90;60.60;;;;;;6218722;28;20480;-72
2022/09/09 06:40:57;;;;;;;0.60;0.40;;;22.00;60.80;;;;;;6218463;28;20022;-72
2022/09/09 06:43:59;;;;;;;0.80;0.50;;;22.00;60.60;;;;;;6217854;28;20041;-73
2022/09/09 06:46:59;;;;;;;0.60;0.50;;;22.00;60.40;;;;;;6218183;28;20022;-72
2022/09/09 06:50:00;;;;;;;1.15;0.60;;;22.00;60.60;;;;;;6218248;28;20032;-72
2022/09/09 06:53:02;;;;;;;0.47;0.40;;;22.00;60.70;;;;;;6226621;28;20361;-73
2022/09/09 06:56:16;;;;;;;0.60;0.47;;;22.00;60.40;;;;;;6217320;28;20282;-72
2022/09/09 06:59:17;;;;;;;0.53;0.50;;;21.90;60.30;;;;;;6217329;28;20032;-72
2022/09/09 07:02:18;;;;;;;0.57;0.50;;;22.00;60.50;;;;;;6217210;28;20030;-72
2022/09/09 07:05:19;;;;;;;0.50;0.50;;;21.90;60.40;;;;;;6218172;28;20046;-73
2022/09/09 07:08:20;;;;;;;0.50;0.30;;;22.00;60.60;;;;;;6217967;28;20132;-72
2022/09/09 07:11:22;;;;;;;0.40;0.40;;;21.90;60.30;;;;;;6218123;28;20026;-73
2022/09/09 07:14:23;;;;;;;0.60;0.40;;;22.00;60.40;;;;;;6217539;28;20038;-72
2022/09/09 07:17:24;;;;;;;0.93;0.43;;;21.90;60.30;;;;;;6225992;28;20385;-72
2022/09/09 07:20:24;;;;;;;0.90;0.60;;;21.90;60.40;;;;;;6217858;28;20086;-72
2022/09/09 07:23:25;;;;;;;0.90;0.60;;;22.00;60.40;;;;;;6218096;28;20057;-72
2022/09/09 07:26:28;;;;;;;0.80;0.50;;;22.00;60.30;;;;;;6216729;28;20032;-72
2022/09/09 07:29:29;;;;;;;0.65;0.55;;;22.00;60.30;;;;;;6217512;28;20064;-72
2022/09/09 07:32:30;;;;;;;0.60;0.50;;;22.00;60.30;;;;;;6216681;28;20041;-73
2022/09/09 07:35:30;;;;;;;0.40;0.40;;;22.00;60.40;;;;;;6217574;28;20026;-72
2022/09/09 07:38:31;;;;;;;0.63;0.47;;;22.00;60.60;;;;;;6217730;28;20026;-72
2022/09/09 07:41:41;;;;;;;0.50;0.50;;;21.90;60.30;;;;;;6217058;28;20026;-72
2022/09/09 07:44:41;;;;;;;0.40;0.40;;;22.00;60.40;;;;;;6217545;28;20381;-72
2022/09/09 07:47:42;;;;;;;0.75;0.50;;;22.00;61.20;;;;;;6217438;28;20029;-72
2022/09/09 07:50:42;;;;;;;0.82;0.38;;;22.00;60.30;;;;;;6216575;28;20446;-72
2022/09/09 07:53:44;;;;;;;0.50;0.40;;;21.90;60.30;;;;;;6217533;28;20057;-73
2022/09/09 07:56:44;;;;;;;0.70;0.55;;;22.00;60.40;;;;;;6217555;28;20022;-72
2022/09/09 07:59:46;;;;;;;0.93;0.43;;;22.00;60.80;;;;;;6217539;28;20057;-72
2022/09/09 08:02:47;;;;;;;0.40;0.40;;;22.00;60.40;;;;;;6217405;28;20025;-72
2022/09/09 08:05:47;;;;;;;0.40;0.30;;;22.00;60.40;;;;;;6224906;28;20099;-72
2022/09/09 08:08:51;;;;;;;0.30;0.30;;;21.90;60.40;;;;;;6217724;28;20030;-72
2022/09/09 08:11:51;;;;;;;0.30;0.30;;;22.00;60.50;;;;;;6217463;28;20018;-72
2022/09/09 08:14:53;;;;;;;0.40;0.32;;;22.00;60.70;;;;;;6221221;28;20038;-72
2022/09/09 08:17:56;;;;;;;0.40;0.30;;;21.90;60.50;;;;;;6226452;28;20480;-72
2022/09/09 08:20:56;;;;;;;0.73;0.50;;;21.90;60.40;;;;;;6221108;28;20022;-72
2022/09/09 08:23:59;;;;;;;0.30;0.30;;;21.90;60.40;;;;;;6221203;28;20022;-72
2022/09/09 08:26:59;;;;;;;0.38;0.30;;;21.90;60.50;;;;;;6220683;28;20022;-72
2022/09/09 08:30:00;;;;;;;0.88;0.50;;;21.90;60.60;;;;;;6221278;28;20059;-72
2022/09/09 08:33:01;;;;;;;0.30;0.30;;;21.90;60.60;;;;;;6220047;28;20025;-72
2022/09/09 08:36:01;;;;;;;0.35;0.35;;;21.90;60.60;;;;;;6220518;28;20041;-72
2022/09/09 08:39:04;;;;;;;0.40;0.40;;;21.90;60.70;;;;;;6221418;28;20231;-72
2022/09/09 08:42:13;;;;;;;3.20;0.40;;;21.90;60.70;;;;;;6220855;28;20050;-73
2022/09/09 08:45:26;;;;;;;0.30;0.30;;;21.90;60.80;;;;;;6220497;28;20026;-72
2022/09/09 08:48:37;;;;;;;0.52;0.40;;;21.90;60.60;;;;;;6220513;28;20034;-72
2022/09/09 08:51:38;;;;;;;0.55;0.43;;;21.90;60.50;;;;;;6220515;28;20492;-73
2022/09/09 08:54:39;;;;;;;0.43;0.40;;;22.00;60.70;;;;;;6220711;28;20030;-73
2022/09/09 08:57:40;;;;;;;0.32;0.30;;;21.90;60.70;;;;;;6220947;28;20025;-72
2022/09/09 09:01:00;;;;;;;0.32;0.32;;;22.00;60.90;;;;;;6220542;28;20064;-72
2022/09/09 09:04:03;;;;;;;0.47;0.40;;;21.90;60.70;;;;;;6220642;28;20018;-72
2022/09/09 09:07:21;;;;;;;0.77;0.47;;;21.90;60.50;;;;;;6219979;28;20038;-72
2022/09/09 09:10:30;;;;;;;0.60;0.50;;;21.90;60.40;;;;;;6220268;28;20030;-72
2022/09/09 09:13:36;;;;;;;0.45;0.40;;;21.90;60.50;;;;;;6220243;28;20034;-72
2022/09/09 09:16:53;;;;;;;0.73;0.38;;;22.00;60.60;;;;;;6219897;28;20079;-72
2022/09/09 09:19:53;;;;;;;0.40;0.40;;;22.00;60.40;;;;;;6200673;28;20457;-72
2022/09/09 09:22:55;;;;;;;0.45;0.45;;;22.00;60.40;;;;;;6205211;28;20022;-72
2022/09/09 09:26:00;;;;;;;0.50;0.40;;;22.00;60.40;;;;;;6218975;28;20033;-72
2022/09/09 09:29:10;;;;;;;0.93;0.50;;;22.00;60.40;;;;;;6218799;28;20022;-72
2022/09/09 09:32:17;;;;;;;0.35;0.30;;;21.90;60.30;;;;;;6219689;28;20030;-72
2022/09/09 09:35:18;;;;;;;0.60;0.50;;;21.90;60.40;;;;;;6226170;28;20030;-72
2022/09/09 09:38:24;;;;;;;0.68;0.35;;;21.90;60.40;;;;;;6219819;28;20026;-72
2022/09/09 09:41:38;;;;;;;0.73;0.40;;;21.90;60.60;;;;;;6218433;28;20026;-72
2022/09/09 09:44:39;;;;;;;0.50;0.40;;;21.90;60.70;;;;;;6219662;28;20108;-72
2022/09/09 09:47:40;;;;;;;0.35;0.30;;;21.90;60.70;;;;;;6219609;28;20044;-72
2022/09/09 09:50:53;;;;;;;0.45;0.40;;;21.90;60.70;;;;;;6219600;28;20155;-72
2022/09/09 09:54:04;;;;;;;1.02;0.40;;;21.90;60.70;;;;;;6219430;28;20164;-73
2022/09/09 09:57:16;;;;;;;0.30;0.30;;;21.90;60.70;;;;;;6219310;28;20079;-72
2022/09/09 10:00:20;;;;;;;0.30;0.30;;;21.90;60.70;;;;;;6219307;28;20034;-72
2022/09/09 10:03:29;;;;;;;0.30;0.30;;;21.90;60.70;;;;;;6224519;28;20589;-72
2022/09/09 10:06:35;;;;;;;0.80;0.40;;;21.90;60.70;;;;;;6219415;28;20029;-72
2022/09/09 10:09:36;;;;;;;0.85;0.47;;;21.90;60.70;;;;;;6219430;28;20065;-72
2022/09/09 10:12:46;;;;;;;0.88;0.30;;;21.90;60.70;;;;;;6219364;28;20022;-72
2022/09/09 10:16:40;;;;;;;0.35;0.30;;;21.90;60.80;;;;;;6218682;28;20041;-72
2022/09/09 10:19:55;;;;;;;0.63;0.40;;;21.90;60.70;;;;;;6232117;28;20069;-76
2022/09/09 10:23:34;;;;;;;0.30;0.30;;;21.90;60.60;;;;;;6219287;28;20462;-72
2022/09/09 10:27:12;;;;;;;0.75;0.40;;;21.90;60.50;;;;;;6219043;28;20034;-72
2022/09/09 10:30:16;;;;;;;0.73;0.47;;;21.90;60.50;;;;;;6219217;28;20057;-72
2022/09/09 10:33:30;;;;;;;0.65;0.50;;;21.90;60.60;;;;;;6218458;28;20079;-72
2022/09/09 10:36:31;;;;;;;0.95;0.30;;;21.90;60.50;;;;;;6220389;28;20144;-72
2022/09/09 10:39:40;;;;;;;0.80;0.60;;;21.90;60.60;;;;;;6218789;28;20739;-72
2022/09/09 10:42:42;;;;;;;0.47;0.40;;;21.90;60.60;;;;;;6216764;28;20061;-72
2022/09/09 10:46:02;;;;;;;0.40;0.30;;;21.90;60.70;;;;;;6218425;28;20066;-72
2022/09/09 10:49:05;;;;;;;0.40;0.40;;;21.90;60.70;;;;;;6218543;28;20026;-73
2022/09/09 10:52:26;;;;;;;0.65;0.40;;;21.90;60.70;;;;;;6218812;28;20383;-72
2022/09/09 10:55:41;;;;;;;0.30;0.30;;;21.90;60.70;;;;;;6218448;28;20040;-73
2022/09/09 10:58:58;;;;;;;0.30;0.30;;;21.90;60.70;;;;;;6217182;28;20026;-72
2022/09/09 11:02:16;;;;;;;0.30;0.30;;;21.90;60.70;;;;;;6218420;28;20507;-72
2022/09/09 11:05:35;;;;;;;0.20;0.20;;;21.90;60.70;;;;;;6222132;28;20030;-72
2022/09/09 11:08:39;;;;;;;0.55;0.40;;;21.90;60.80;;;;;;6217761;28;20522;-72
2022/09/09 11:11:51;;;;;;;0.30;0.30;;;21.90;60.80;;;;;;6217827;28;20030;-73
2022/09/09 11:15:17;;;;;;;0.30;0.30;;;21.90;60.80;;;;;;6217761;28;20117;-72
2022/09/09 11:18:23;;;;;;;0.30;0.30;;;21.90;60.80;;;;;;6218019;28;20049;-72
2022/09/09 11:21:36;;;;;;;0.40;0.32;;;21.90;60.80;;;;;;6217871;28;20437;-72
2022/09/09 11:24:44;;;;;;;0.30;0.30;;;21.90;60.80;;;;;;6218574;28;20025;-72
2022/09/09 11:27:56;;;;;;;0.85;0.30;;;21.90;60.80;;;;;;6222741;28;20044;-72
2022/09/09 11:31:30;;;;;;;0.25;0.25;;;21.90;60.90;;;;;;6217803;28;20054;-72
2022/09/09 11:35:08;;;;;;;0.30;0.30;;;21.90;60.90;;;;;;6217185;28;20121;-73
2022/09/09 11:38:27;;;;;;;0.47;0.30;;;21.90;60.90;;;;;;6217791;28;20022;-74
2022/09/09 11:41:37;;;;;;;0.60;0.40;;;21.90;61.00;;;;;;6217350;28;20561;-72
2022/09/09 11:44:37;;;;;;;0.30;0.30;;;21.90;60.90;;;;;;6218736;28;20090;-72
2022/09/09 11:47:38;;;;;;;0.40;0.30;;;21.90;61.00;;;;;;6219066;28;20021;-72
2022/09/09 11:50:40;;;;;;;0.32;0.32;;;21.90;60.90;;;;;;6222038;28;20026;-73
2022/09/09 11:54:04;;;;;;;0.20;0.20;;;21.90;60.90;;;;;;6221474;28;20026;-72
2022/09/09 11:57:30;;;;;;;0.23;0.23;;;21.90;61.00;;;;;;6221459;28;20042;-72
2022/09/09 12:00:42;;;;;;;;;;;21.90;60.80;;;;;;6221838;28;20054;-72
2022/09/09 12:03:50;;;;;;;0.20;0.20;;;21.90;60.80;;;;;;6221497;28;19914;-72
2022/09/09 12:06:53;;;;;;;0.25;0.20;;;21.90;60.80;;;;;;6220861;28;20388;-72
2022/09/09 12:10:05;;;;;;;0.43;0.40;;;21.90;60.80;;;;;;6220672;28;20544;-72
2022/09/09 12:13:15;;;;;;;0.30;0.30;;;21.90;60.80;;;;;;6220574;28;20018;-72
2022/09/09 12:16:34;;;;;;;0.52;0.35;;;21.90;60.90;;;;;;6220582;28;20463;-71
2022/09/09 12:19:35;;;;;;;0.40;0.30;;;21.90;60.80;;;;;;6220325;28;20120;-72
2022/09/09 12:23:15;;;;;;;0.50;0.30;;;21.90;60.80;;;;;;6221112;28;20048;-72
2022/09/09 12:26:29;;;;;;;0.20;0.20;;;21.90;60.80;;;;;;6223614;28;20030;-72
2022/09/09 12:29:46;;;;;;;0.40;0.30;;;21.90;60.80;;;;;;6227360;28;20018;-72
2022/09/09 12:32:46;;;;;;;0.40;0.30;;;21.90;60.80;;;;;;6220382;28;20135;-72
2022/09/09 12:35:57;;;;;;;0.30;0.30;;;21.90;60.80;;;;;;6220390;28;20038;-72
2022/09/09 12:39:10;;;;;;;0.20;0.20;;;21.90;60.80;;;;;;6221053;28;20085;-72
2022/09/09 12:42:19;;;;;;;0.30;0.30;;;21.90;60.80;;;;;;6221183;28;20050;-72
2022/09/09 12:45:26;;;;;;;0.30;0.30;;;21.90;60.90;;;;;;6220598;28;20040;-72
2022/09/09 12:48:41;;;;;;;0.20;0.20;;;21.90;60.90;;;;;;6221085;28;20026;-72
2022/09/09 12:51:43;;;;;;;0.30;0.30;;;21.90;60.90;;;;;;6226283;28;20034;-72
2022/09/09 12:54:46;;;;;;;0.30;0.30;;;21.90;60.90;;;;;;6220742;28;20034;-72
2022/09/09 12:57:51;;;;;;;0.30;0.30;;;21.90;60.80;;;;;;6220333;28;20029;-72
2022/09/09 13:00:56;;;;;;;0.43;0.30;;;21.90;60.80;;;;;;6219686;28;20018;-72
2022/09/09 13:03:57;;;;;;;0.23;0.23;;;21.90;60.80;;;;;;6220623;28;20026;-72
2022/09/09 13:07:09;;;;;;;0.20;0.20;;;21.90;60.90;;;;;;6220089;28;20281;-72
2022/09/09 13:10:19;;;;;;;0.20;0.20;;;21.90;60.90;;;;;;6220580;28;20116;-72
2022/09/09 13:13:29;;;;;;;0.32;0.25;;;21.90;60.90;;;;;;6219961;28;20026;-72
2022/09/09 13:16:33;;;;;;;0.30;0.30;;;21.90;60.80;;;;;;6220103;28;20045;-72
2022/09/09 13:19:45;;;;;;;0.30;0.30;;;21.90;60.80;;;;;;6220200;28;20064;-72
2022/09/09 13:22:50;;;;;;;0.20;0.20;;;21.90;60.80;;;;;;6219730;28;20526;-72
2022/09/09 13:26:02;;;;;;;0.43;0.30;;;21.90;60.80;;;;;;6225172;28;20030;-72
2022/09/09 13:29:19;;;;;;;0.65;0.30;;;21.90;61.60;;;;;;6219940;28;20026;-73
2022/09/09 13:32:20;;;;;;;0.20;0.20;;;21.90;60.70;;;;;;6220141;28;20388;-72
2022/09/09 13:35:23;;;;;;;0.98;0.38;;;21.90;61.60;;;;;;6219904;28;20033;-72
2022/09/09 13:38:28;;;;;;;0.40;0.20;;;21.90;60.70;;;;;;6222981;28;20037;-72
2022/09/09 13:41:35;;;;;;;0.30;0.20;;;21.90;60.90;;;;;;6220271;28;20137;-72
2022/09/09 13:44:39;;;;;;;0.30;0.30;;;21.90;61.80;;;;;;6219359;28;20030;-72
2022/09/09 13:47:41;;;;;;;0.65;0.40;;;21.90;61.00;;;;;;6218371;28;20034;-72
2022/09/09 13:50:42;;;;;;;0.20;0.20;;;21.90;61.00;;;;;;6219492;28;20065;-72
2022/09/09 13:53:46;;;;;;;0.22;0.22;;;21.90;61.00;;;;;;6219228;28;20026;-72
2022/09/09 13:56:48;;;;;;;0.30;0.20;;;21.90;61.00;;;;;;6219533;28;20383;-73
2022/09/09 13:59:49;;;;;;;0.22;0.22;;;21.90;61.00;;;;;;6219081;28;20026;-72
2022/09/09 14:02:51;;;;;;;0.20;0.20;;;21.90;60.90;;;;;;6219526;28;20053;-72
2022/09/09 14:05:51;;;;;;;0.43;0.30;;;21.90;60.90;;;;;;6217343;28;20033;-73
2022/09/09 14:08:54;;;;;;;0.35;0.28;;;21.90;61.00;;;;;;6219243;28;20377;-72
2022/09/09 14:11:55;;;;;;;0.20;0.20;;;21.90;60.90;;;;;;6218319;28;20047;-72
2022/09/09 14:14:55;;;;;;;0.35;0.30;;;21.90;61.00;;;;;;6219122;28;20059;-72
2022/09/09 14:17:56;;;;;;;0.20;0.20;;;21.90;61.00;;;;;;6218993;28;20018;-72
2022/09/09 14:20:58;;;;;;;0.10;0.10;;;21.90;60.90;;;;;;6219247;28;20024;-72
2022/09/09 14:23:59;;;;;;;0.35;0.30;;;21.90;60.90;;;;;;6218629;28;20022;-72
2022/09/09 14:26:59;;;;;;;0.13;0.13;;;21.90;60.90;;;;;;6219250;28;20048;-72
2022/09/09 14:30:00;;;;;;;0.25;0.25;;;21.90;60.90;;;;;;6219149;28;20026;-72
2022/09/09 14:33:01;;;;;;;0.32;0.20;;;21.90;60.90;;;;;;6219001;28;20022;-72
2022/09/09 14:36:03;;;;;;;0.30;0.30;;;21.90;60.90;;;;;;6218458;28;20480;-72
2022/09/09 14:39:04;;;;;;;0.40;0.25;;;21.90;60.90;;;;;;6218844;28;20052;-72
2022/09/09 14:42:05;;;;;;;0.22;0.22;;;21.90;61.00;;;;;;6218689;28;20546;-72
2022/09/09 14:45:06;;;;;;;0.20;0.20;;;21.90;60.90;;;;;;6218455;28;20033;-73
2022/09/09 14:48:07;;;;;;;0.10;0.10;;;21.90;60.90;;;;;;6219001;28;20033;-73
2022/09/09 14:51:09;;;;;;;0.15;0.15;;;21.90;61.00;;;;;;6218316;28;20030;-72
2022/09/09 14:54:10;;;;;;;0.30;0.28;;;21.90;60.90;;;;;;6218394;28;20109;-72
2022/09/09 14:57:11;;;;;;;0.32;0.20;;;21.90;61.00;;;;;;6218406;28;20058;-72
2022/09/09 15:00:13;;;;;;;0.25;0.25;;;21.90;61.00;;;;;;6218468;28;20022;-72
2022/09/09 15:03:13;;;;;;;0.20;0.20;;;21.90;60.90;;;;;;6218510;28;20180;-72
2022/09/09 15:06:14;;;;;;;0.20;0.20;;;21.90;60.90;;;;;;6218368;28;20050;-72
2022/09/09 15:09:15;;;;;;;0.20;0.20;;;21.90;60.90;;;;;;6217930;28;20030;-72
2022/09/09 15:12:18;;;;;;;0.20;0.20;;;21.90;60.90;;;;;;6218500;28;20014;-72
2022/09/09 15:15:19;;;;;;;0.20;0.20;;;21.90;60.90;;;;;;6217333;28;20065;-72
2022/09/09 15:18:20;;;;;;;0.20;0.20;;;21.90;60.80;;;;;;6218089;28;20108;-72
2022/09/09 15:21:24;;;;;;;0.25;0.20;;;21.90;60.90;;;;;;6216718;28;20088;-72
2022/09/09 15:24:25;;;;;;;0.85;0.45;;;21.90;61.00;;;;;;6217850;28;20040;-73
2022/09/09 15:27:26;;;;;;;0.50;0.30;;;21.90;61.00;;;;;;6218016;28;20144;-72
2022/09/09 15:30:27;;;;;;;0.28;0.20;;;21.90;61.00;;;;;;6223834;28;20468;-72
2022/09/09 15:33:28;;;;;;;0.20;0.20;;;21.90;61.00;;;;;;6217816;28;20026;-72
2022/09/09 15:36:43;;;;;;;0.28;0.20;;;21.90;60.90;;;;;;6218271;28;20026;-72
2022/09/09 15:39:43;;;;;;;0.20;0.20;;;21.90;60.90;;;;;;6217515;28;20018;-73
2022/09/09 15:42:45;;;;;;;0.20;0.10;;;21.90;60.90;;;;;;6217256;28;20053;-72
2022/09/09 15:45:49;;;;;;;0.20;0.20;;;21.90;61.00;;;;;;6217519;28;20047;-72
2022/09/09 15:48:50;;;;;;;0.25;0.20;;;21.90;60.90;;;;;;6217805;28;20049;-72
2022/09/09 15:52:02;;;;;;;0.20;0.20;;;21.90;60.90;;;;;;6217554;28;20549;-72
2022/09/09 15:55:02;;;;;;;0.40;0.20;;;21.90;60.90;;;;;;6217029;28;20125;-72
2022/09/09 15:58:03;;;;;;;0.10;0.10;;;21.90;60.90;;;;;;6217594;28;20030;-72
2022/09/09 16:01:07;;;;;;;0.70;0.30;;;21.90;60.90;;;;;;6217141;28;20098;-72
2022/09/09 16:04:08;;;;;;;0.43;0.20;;;21.90;60.90;;;;;;6217651;28;20018;-72
2022/09/09 16:07:08;;;;;;;0.63;0.30;;;21.90;60.90;;;;;;6217305;28;20022;-72
2022/09/09 16:10:10;;;;;;;0.20;0.20;;;21.90;61.00;;;;;;6217179;28;20027;-72